createdAt,value
2024-05-09T00:01:37.824Z,100257.03
2024-05-09T00:03:41.642Z,100321.59
2024-05-09T00:05:44.792Z,100257.47
2024-05-09T00:07:47.340Z,100320.28
2024-05-09T00:09:49.689Z,100358.69
2024-05-09T00:11:52.254Z,100345.25
2024-05-09T00:13:54.706Z,100242.56
2024-05-09T00:15:57.234Z,100320.28
2024-05-09T00:17:59.741Z,100287.50
2024-05-09T00:20:03.237Z,100349.16
2024-05-09T00:22:07.863Z,100300.63
2024-05-09T00:24:10.506Z,100301.78
2024-05-09T00:26:17.746Z,100356.81
2024-05-09T00:28:20.180Z,100305.00
2024-05-09T00:30:31.579Z,100349.22
2024-05-09T00:32:37.633Z,100294.09
2024-05-09T00:34:40.050Z,100356.47
2024-05-09T00:36:42.510Z,100424.09
2024-05-09T00:38:47.827Z,100367.53
2024-05-09T00:40:50.186Z,100285.94
2024-05-09T00:42:52.437Z,100272.19
2024-05-09T00:44:55.001Z,100343.28
2024-05-09T00:46:57.921Z,100326.03
2024-05-09T00:49:01.369Z,100353.63
2024-05-09T00:51:05.635Z,100281.91
2024-05-09T00:53:11.480Z,100322.72
2024-05-09T00:55:16.570Z,100327.78
2024-05-09T00:57:18.948Z,100334.78
2024-05-09T00:59:24.401Z,100324.06
2024-05-09T01:01:27.228Z,100370.38
2024-05-09T01:03:29.922Z,100342.34
2024-05-09T01:05:32.785Z,100327.28
2024-05-09T01:07:35.189Z,100320.84
2024-05-09T01:09:37.605Z,100341.94
2024-05-09T01:11:41.308Z,100351.75
2024-05-09T01:13:45.282Z,100350.53
2024-05-09T01:15:50.399Z,100340.59
2024-05-09T01:17:55.952Z,100424.53
2024-05-09T01:19:58.726Z,100319.41
2024-05-09T01:22:01.373Z,100265.91
2024-05-09T01:24:03.909Z,100323.56
2024-05-09T01:26:06.520Z,100291.50
2024-05-09T01:28:08.969Z,100358.88
2024-05-09T01:30:17.227Z,100345.78
2024-05-09T01:32:23.800Z,100354.44
2024-05-09T01:34:27.151Z,100341.75
2024-05-09T01:36:30.038Z,100278.06
2024-05-09T01:38:32.434Z,100310.72
2024-05-09T01:40:38.937Z,100274.69
2024-05-09T01:42:42.898Z,100346.25
2024-05-09T01:44:45.345Z,100321.16
2024-05-09T01:46:47.691Z,100282.50
2024-05-09T01:48:50.420Z,100319.03
2024-05-09T01:50:53.035Z,100296.38
2024-05-09T01:52:55.515Z,100361.09
2024-05-09T01:54:57.909Z,100393.44
2024-05-09T01:57:00.218Z,100355.81
2024-05-09T01:59:02.640Z,100374.00
2024-05-09T02:01:05.311Z,100347.91
2024-05-09T02:03:15.557Z,100277.91
2024-05-09T02:05:20.450Z,100329.03
2024-05-09T02:07:22.837Z,100337.50
2024-05-09T02:09:26.189Z,100287.03
2024-05-09T02:11:28.599Z,100289.72
2024-05-09T02:13:31.116Z,100437.56
2024-05-09T02:15:33.718Z,100312.75
2024-05-09T02:17:36.093Z,100379.41
2024-05-09T02:19:38.738Z,100317.56
2024-05-09T02:21:41.193Z,100332.44
2024-05-09T02:23:43.481Z,100369.09
2024-05-09T02:25:45.901Z,100349.31
2024-05-09T02:27:48.361Z,100364.31
2024-05-09T02:29:50.956Z,100327.22
2024-05-09T02:31:53.457Z,100310.03
2024-05-09T02:33:56.610Z,100416.00
2024-05-09T02:35:59.150Z,100250.56
2024-05-09T02:38:01.833Z,100316.19
2024-05-09T02:40:07.120Z,100386.03
2024-05-09T02:42:11.722Z,100329.81
2024-05-09T02:44:14.120Z,100342.56
2024-05-09T02:46:16.552Z,100363.66
2024-05-09T02:48:19.221Z,100361.53
2024-05-09T02:50:29.876Z,100383.25
2024-05-09T02:52:39.686Z,100336.03
2024-05-09T02:54:42.183Z,100417.28
2024-05-09T02:56:44.593Z,100366.84
2024-05-09T02:58:47.421Z,100366.28
2024-05-09T03:00:49.965Z,100411.22
2024-05-09T03:02:53.224Z,100274.66
2024-05-09T03:04:56.125Z,100270.44
2024-05-09T03:06:58.933Z,100354.88
2024-05-09T03:09:01.349Z,100363.16
2024-05-09T03:11:03.989Z,100287.25
2024-05-09T03:13:08.458Z,100364.34
2024-05-09T03:15:11.087Z,100305.53
2024-05-09T03:17:13.613Z,100296.53
2024-05-09T03:19:16.406Z,100393.41
2024-05-09T03:21:19.030Z,100418.72
2024-05-09T03:23:22.012Z,100432.81
2024-05-09T03:25:24.477Z,100324.19
2024-05-09T03:27:27.047Z,100329.03
2024-05-09T03:29:29.886Z,100295.19
2024-05-09T03:31:32.349Z,100376.72
2024-05-09T03:33:35.574Z,100376.44
2024-05-09T03:35:38.734Z,100376.88
2024-05-09T03:37:41.128Z,100384.97
2024-05-09T03:39:43.831Z,100339.72
2024-05-09T03:41:46.256Z,100395.28
2024-05-09T03:43:49.534Z,100395.56
2024-05-09T03:45:52.115Z,100369.25
2024-05-09T03:47:54.705Z,100295.53
2024-05-09T03:49:57.818Z,100354.25
2024-05-09T03:52:05.536Z,100358.41
2024-05-09T03:54:08.075Z,100357.56
2024-05-09T03:56:10.688Z,100444.66
2024-05-09T03:58:14.796Z,100363.63
2024-05-09T04:00:22.630Z,100419.81
2024-05-09T04:02:33.924Z,100428.44
2024-05-09T04:04:36.840Z,100361.47
2024-05-09T04:06:40.149Z,100426.09
2024-05-09T04:08:42.960Z,100462.56
2024-05-09T04:10:46.295Z,100360.13
2024-05-09T04:12:48.975Z,100373.75
2024-05-09T04:14:51.824Z,100422.28
2024-05-09T04:16:54.473Z,100360.63
2024-05-09T04:18:57.054Z,100447.91
2024-05-09T04:21:00.223Z,100443.97
2024-05-09T04:23:02.950Z,100398.78
2024-05-09T04:25:05.927Z,100458.56
2024-05-09T04:27:08.617Z,100395.84
2024-05-09T04:29:11.348Z,100363.00
2024-05-09T04:31:13.870Z,100402.97
2024-05-09T04:33:16.520Z,100362.38
2024-05-09T04:35:22.853Z,100338.63
2024-05-09T04:37:26.037Z,100378.44
2024-05-09T04:39:28.741Z,100371.63
2024-05-09T04:41:31.479Z,100334.53
2024-05-09T04:43:35.572Z,100463.16
2024-05-09T04:45:37.947Z,100465.59
2024-05-09T04:47:40.808Z,100430.75
2024-05-09T04:49:46.080Z,100445.28
2024-05-09T04:51:48.525Z,100427.31
2024-05-09T04:53:51.235Z,100352.25
2024-05-09T04:55:54.019Z,100409.53
2024-05-09T04:57:56.465Z,100476.53
2024-05-09T04:59:59.208Z,100419.47
2024-05-09T05:02:02.430Z,100384.41
2024-05-09T05:04:05.447Z,100351.63
2024-05-09T05:06:08.468Z,100449.44
2024-05-09T05:08:16.880Z,100466.16
2024-05-09T05:10:25.530Z,100415.78
2024-05-09T05:12:50.991Z,100404.78
2024-05-09T05:14:53.481Z,100468.81
2024-05-09T05:16:56.035Z,100444.06
2024-05-09T05:18:58.493Z,100471.28
2024-05-09T05:21:01.330Z,100502.00
2024-05-09T05:23:04.148Z,100511.34
2024-05-09T05:25:07.290Z,100454.53
2024-05-09T05:27:09.700Z,100513.44
2024-05-09T05:29:12.094Z,100419.56
2024-05-09T05:31:17.412Z,100379.47
2024-05-09T05:33:20.452Z,100475.91
2024-05-09T05:35:23.401Z,100460.25
2024-05-09T05:37:25.806Z,100436.50
2024-05-09T05:39:28.701Z,100499.78
2024-05-09T05:41:31.270Z,100400.47
2024-05-09T05:43:34.338Z,100411.38
2024-05-09T05:45:37.369Z,100472.63
2024-05-09T05:47:40.259Z,100455.13
2024-05-09T05:49:42.798Z,100469.78
2024-05-09T05:51:45.471Z,100511.38
2024-05-09T05:53:47.923Z,100480.47
2024-05-09T05:55:50.513Z,100514.56
2024-05-09T05:57:52.812Z,100451.47
2024-05-09T05:59:55.252Z,100405.47
2024-05-09T06:01:57.764Z,100425.25
2024-05-09T06:04:00.148Z,100472.50
2024-05-09T06:06:03.876Z,100541.88
2024-05-09T06:08:07.127Z,100450.72
2024-05-09T06:10:17.267Z,100414.09
2024-05-09T06:12:24.148Z,100425.59
2024-05-09T06:14:26.818Z,100505.91
2024-05-09T06:16:29.357Z,100402.06
2024-05-09T06:18:32.374Z,100486.53
2024-05-09T06:20:37.504Z,100452.91
2024-05-09T06:22:40.951Z,100429.84
2024-05-09T06:24:43.645Z,100474.50
2024-05-09T06:26:46.782Z,100505.06
2024-05-09T06:28:49.067Z,100470.41
2024-05-09T06:30:51.429Z,100520.50
2024-05-09T06:32:53.766Z,100424.41
2024-05-09T06:34:56.153Z,100470.00
2024-05-09T06:36:58.603Z,100488.66
2024-05-09T06:39:01.321Z,100455.13
2024-05-09T06:41:06.217Z,100496.78
2024-05-09T06:43:16.902Z,100472.72
2024-05-09T06:45:21.451Z,100435.63
2024-05-09T06:47:23.750Z,100507.59
2024-05-09T06:49:29.422Z,100459.34
2024-05-09T06:51:32.054Z,100537.88
2024-05-09T06:53:34.964Z,100504.75
2024-05-09T06:55:37.992Z,100449.28
2024-05-09T06:57:43.020Z,100515.03
2024-05-09T06:59:45.947Z,100481.28
2024-05-09T07:01:48.251Z,100472.44
2024-05-09T07:03:50.556Z,100421.63
2024-05-09T07:05:52.974Z,100538.84
2024-05-09T07:07:55.373Z,100449.19
2024-05-09T07:09:57.746Z,100474.38
2024-05-09T07:12:04.078Z,100451.56
2024-05-09T07:14:07.184Z,100474.38
2024-05-09T07:16:09.657Z,100444.19
2024-05-09T07:18:14.085Z,100419.44
2024-05-09T07:20:23.526Z,100459.13
2024-05-09T07:22:34.529Z,100462.72
2024-05-09T07:24:37.634Z,100490.28
2024-05-09T07:26:39.897Z,100466.00
2024-05-09T07:28:42.822Z,100476.19
2024-05-09T07:30:46.035Z,100453.88
2024-05-09T07:32:49.070Z,100422.69
2024-05-09T07:34:52.026Z,100420.22
2024-05-09T07:36:54.362Z,100488.28
2024-05-09T07:38:56.754Z,100520.97
2024-05-09T07:40:59.370Z,100455.94
2024-05-09T07:43:04.042Z,100470.72
2024-05-09T07:45:24.224Z,100457.34
2024-05-09T07:48:57.269Z,100445.53
2024-05-09T07:51:32.806Z,100444.25
2024-05-09T07:53:29.924Z,100501.94
2024-05-09T07:54:39.021Z,100478.34
2024-05-09T07:56:42.173Z,100481.53
2024-05-09T07:58:46.108Z,100476.13
2024-05-09T08:00:48.549Z,100442.94
2024-05-09T08:02:51.330Z,100442.31
2024-05-09T08:04:53.800Z,100415.06
2024-05-09T08:06:56.189Z,100461.16
2024-05-09T08:09:03.095Z,100452.19
2024-05-09T08:11:10.222Z,100431.28
2024-05-09T08:13:12.897Z,100439.84
2024-05-09T08:15:15.558Z,100463.94
2024-05-09T08:17:18.105Z,100480.84
2024-05-09T08:19:21.107Z,100414.47
2024-05-09T08:21:23.462Z,100490.09
2024-05-09T08:23:26.085Z,100456.00
2024-05-09T08:25:28.794Z,100413.00
2024-05-09T08:27:31.268Z,100454.03
2024-05-09T08:29:33.902Z,100453.47
2024-05-09T08:31:39.829Z,100480.41
2024-05-09T08:33:47.738Z,100444.84
2024-05-09T08:35:51.198Z,100461.25
2024-05-09T08:37:53.907Z,100433.13
2024-05-09T08:39:57.669Z,100492.09
2024-05-09T08:42:02.850Z,100464.94
2024-05-09T08:44:05.327Z,100461.16
2024-05-09T08:46:09.516Z,100424.19
2024-05-09T08:48:13.903Z,100511.53
2024-05-09T08:50:28.923Z,100434.00
2024-05-09T08:52:38.564Z,100427.50
2024-05-09T08:54:40.973Z,100494.03
2024-05-09T08:56:46.884Z,100519.00
2024-05-09T08:58:52.259Z,100436.59
2024-05-09T09:00:55.610Z,100410.50
2024-05-09T09:03:00.434Z,100446.88
2024-05-09T09:05:11.757Z,100507.22
2024-05-09T09:07:15.369Z,100475.66
2024-05-09T09:09:18.347Z,100481.69
2024-05-09T09:11:20.844Z,100464.72
2024-05-09T09:13:23.551Z,100460.88
2024-05-09T09:15:25.830Z,100510.38
2024-05-09T09:17:28.238Z,100483.31
2024-05-09T09:19:30.709Z,100437.06
2024-05-09T09:21:33.147Z,100454.09
2024-05-09T09:23:35.970Z,100453.69
2024-05-09T09:25:41.198Z,100503.69
2024-05-09T09:27:43.825Z,100466.16
2024-05-09T09:29:46.347Z,100414.50
2024-05-09T09:32:01.904Z,100451.38
2024-05-09T09:34:08.927Z,100403.38
2024-05-09T09:36:14.808Z,100452.16
2024-05-09T09:38:23.240Z,100431.09
2024-05-09T09:40:32.299Z,100426.66
2024-05-09T09:42:38.559Z,100473.47
2024-05-09T09:44:47.827Z,100457.41
2024-05-09T09:46:58.643Z,100421.88
2024-05-09T09:49:01.769Z,100461.88
2024-05-09T09:51:05.755Z,100415.59
2024-05-09T09:53:08.415Z,100486.41
2024-05-09T09:55:11.870Z,100437.50
2024-05-09T09:57:14.650Z,100422.00
2024-05-09T09:59:17.411Z,100415.06
2024-05-09T10:01:19.896Z,100435.25
2024-05-09T10:03:22.834Z,100434.66
2024-05-09T10:05:25.775Z,100406.09
2024-05-09T10:07:30.078Z,100442.41
2024-05-09T10:09:32.962Z,100416.28
2024-05-09T10:11:42.038Z,100427.50
2024-05-09T10:13:48.176Z,100467.66
2024-05-09T10:15:54.676Z,100411.78
2024-05-09T10:18:07.439Z,100482.97
2024-05-09T10:20:18.291Z,100442.38
2024-05-09T10:22:31.281Z,100444.00
2024-05-09T10:24:51.233Z,100398.94
2024-05-09T10:26:56.678Z,100393.03
2024-05-09T10:28:59.416Z,100374.69
2024-05-09T10:31:13.559Z,100370.41
2024-05-09T10:33:20.635Z,100476.72
2024-05-09T10:35:25.576Z,100433.63
2024-05-09T10:37:31.806Z,100435.56
2024-05-09T10:39:39.286Z,100428.38
2024-05-09T10:41:41.836Z,100378.63
2024-05-09T10:43:45.487Z,100408.13
2024-05-09T10:45:49.710Z,100391.41
2024-05-09T10:47:52.855Z,100377.13
2024-05-09T10:49:57.456Z,100379.19
2024-05-09T10:52:00.230Z,100421.31
2024-05-09T10:54:04.076Z,100382.19
2024-05-09T10:56:06.888Z,100420.81
2024-05-09T10:58:18.477Z,100382.22
2024-05-09T11:00:27.606Z,100391.94
2024-05-09T11:02:36.312Z,100359.06
2024-05-09T11:04:45.430Z,100330.63
2024-05-09T11:06:48.366Z,100448.00
2024-05-09T11:08:51.881Z,100369.41
2024-05-09T11:10:55.380Z,100364.16
2024-05-09T11:12:58.268Z,100371.59
2024-05-09T11:15:01.288Z,100402.94
2024-05-09T11:17:06.766Z,100353.25
2024-05-09T11:19:14.535Z,100380.13
2024-05-09T11:21:17.545Z,100383.78
2024-05-09T11:23:22.336Z,100385.34
2024-05-09T11:25:24.889Z,100380.34
2024-05-09T11:27:27.281Z,100379.88
2024-05-09T11:29:40.169Z,100405.09
2024-05-09T11:31:49.554Z,100384.31
2024-05-09T11:33:55.082Z,100386.69
2024-05-09T11:35:57.946Z,100393.91
2024-05-09T11:38:00.480Z,100427.97
2024-05-09T11:40:04.376Z,100388.69
2024-05-09T11:42:09.916Z,100398.28
2024-05-09T11:44:13.696Z,100339.25
2024-05-09T11:46:16.282Z,100365.38
2024-05-09T11:48:19.339Z,100380.09
2024-05-09T11:50:29.668Z,100344.31
2024-05-09T11:52:35.556Z,100387.69
2024-05-09T11:54:38.219Z,100384.75
2024-05-09T11:56:41.342Z,100344.38
2024-05-09T11:58:44.096Z,100339.09
2024-05-09T12:00:47.187Z,100345.31
2024-05-09T12:02:52.613Z,100357.75
2024-05-09T12:04:55.602Z,100343.00
2024-05-09T12:06:58.483Z,100317.72
2024-05-09T12:09:01.733Z,100394.88
2024-05-09T12:11:04.877Z,100358.44
2024-05-09T12:13:08.094Z,100330.44
2024-05-09T12:15:11.089Z,100332.28
2024-05-09T12:17:13.946Z,100321.00
2024-05-09T12:19:19.014Z,100334.88
2024-05-09T12:21:22.036Z,100300.97
2024-05-09T12:23:24.570Z,100314.88
2024-05-09T12:25:27.139Z,100367.19
2024-05-09T12:27:29.744Z,100314.69
2024-05-09T12:29:33.336Z,100375.44
2024-05-09T12:31:37.127Z,100341.03
2024-05-09T12:33:39.958Z,100308.50
2024-05-09T12:35:45.250Z,100341.47
2024-05-09T12:37:49.854Z,100322.47
2024-05-09T12:39:52.804Z,100325.31
2024-05-09T12:41:55.819Z,100350.09
2024-05-09T12:43:58.416Z,100344.53
2024-05-09T12:46:01.474Z,100281.94
2024-05-09T12:48:07.536Z,100347.34
2024-05-09T12:50:18.967Z,100301.78
2024-05-09T12:52:29.340Z,100380.75
2024-05-09T12:54:33.954Z,100283.06
2024-05-09T12:56:36.989Z,100299.13
2024-05-09T12:58:39.859Z,100340.63
2024-05-09T13:00:42.893Z,100325.13
2024-05-09T13:02:45.628Z,100332.44
2024-05-09T13:04:48.602Z,100275.66
2024-05-09T13:06:51.086Z,100304.69
2024-05-09T13:08:53.770Z,100301.38
2024-05-09T13:10:56.540Z,100292.69
2024-05-09T13:13:00.467Z,100255.41
2024-05-09T13:15:04.376Z,100318.97
2024-05-09T13:17:06.846Z,100262.28
2024-05-09T13:19:09.398Z,100323.13
2024-05-09T13:21:12.111Z,100284.63
2024-05-09T13:23:14.592Z,100257.25
2024-05-09T13:25:17.227Z,100299.00
2024-05-09T13:27:19.948Z,100246.28
2024-05-09T13:29:22.843Z,100243.25
2024-05-09T13:31:25.616Z,100289.44
2024-05-09T13:33:29.164Z,100238.59
2024-05-09T13:35:32.459Z,100231.47
2024-05-09T13:37:35.626Z,100248.38
2024-05-09T13:39:38.375Z,100249.22
2024-05-09T13:41:41.578Z,100296.84
2024-05-09T13:43:44.085Z,100254.09
2024-05-09T13:45:47.505Z,100286.69
2024-05-09T13:47:50.747Z,100218.22
2024-05-09T13:49:54.293Z,100282.00
2024-05-09T13:51:57.313Z,100262.03
2024-05-09T13:54:00.013Z,100238.41
2024-05-09T13:56:03.108Z,100219.50
2024-05-09T13:58:05.959Z,100272.03
2024-05-09T14:00:22.304Z,100293.66
2024-05-09T14:02:33.444Z,100217.44
2024-05-09T14:04:36.259Z,100261.44
2024-05-09T14:06:39.010Z,100233.13
2024-05-09T14:08:41.877Z,100245.94
2024-05-09T14:10:47.414Z,100245.97
2024-05-09T14:12:50.063Z,100222.34
2024-05-09T14:14:52.957Z,100218.06
2024-05-09T14:16:55.432Z,100262.00
2024-05-09T14:18:59.470Z,100220.06
2024-05-09T14:21:02.295Z,100230.03
2024-05-09T14:23:05.097Z,100262.22
2024-05-09T14:25:09.958Z,100237.81
2024-05-09T14:27:12.552Z,100249.63
2024-05-09T14:29:15.008Z,100228.84
2024-05-09T14:31:17.698Z,100187.31
2024-05-09T14:33:25.640Z,100228.84
2024-05-09T14:35:28.337Z,100211.53
2024-05-09T14:37:30.849Z,100278.94
2024-05-09T14:39:33.349Z,100234.53
2024-05-09T14:41:35.904Z,100201.91
2024-05-09T14:43:38.430Z,100212.50
2024-05-09T14:45:42.174Z,100224.28
2024-05-09T14:47:45.019Z,100198.59
2024-05-09T14:49:47.785Z,100235.69
2024-05-09T14:51:51.004Z,100252.41
2024-05-09T14:53:53.372Z,100192.50
2024-05-09T14:55:55.935Z,100184.78
2024-05-09T14:57:58.655Z,100260.56
2024-05-09T15:00:02.082Z,100173.41
2024-05-09T15:02:06.747Z,100182.38
2024-05-09T15:04:09.493Z,100190.53
2024-05-09T15:06:12.134Z,100269.16
2024-05-09T15:08:18.215Z,100272.84
2024-05-09T15:10:27.469Z,100161.22
2024-05-09T15:12:37.209Z,100166.50
2024-05-09T15:14:39.800Z,100170.56
2024-05-09T15:16:42.758Z,100166.44
2024-05-09T15:18:45.438Z,100191.09
2024-05-09T15:20:48.464Z,100186.81
2024-05-09T15:22:51.318Z,100142.38
2024-05-09T15:24:54.621Z,100193.91
2024-05-09T15:26:57.137Z,100189.44
2024-05-09T15:28:59.573Z,100201.84
2024-05-09T15:31:02.037Z,100200.63
2024-05-09T15:33:05.333Z,100238.91
2024-05-09T15:35:08.958Z,100167.38
2024-05-09T15:37:11.399Z,100183.84
2024-05-09T15:39:13.795Z,100209.38
2024-05-09T15:41:16.297Z,100134.75
2024-05-09T15:43:18.825Z,100159.16
2024-05-09T15:45:21.474Z,100229.00
2024-05-09T15:47:23.834Z,100219.63
2024-05-09T15:49:26.385Z,100143.78
2024-05-09T15:51:29.464Z,100142.50
2024-05-09T15:53:32.162Z,100202.06
2024-05-09T15:55:34.911Z,100185.91
2024-05-09T15:57:37.627Z,100178.34
2024-05-09T15:59:40.323Z,100146.53
2024-05-09T16:01:42.931Z,100142.78
2024-05-09T16:03:45.665Z,100164.28
2024-05-09T16:05:48.932Z,100138.50
2024-05-09T16:07:52.603Z,100143.47
2024-05-09T16:09:56.280Z,100144.84
2024-05-09T16:11:58.803Z,100151.41
2024-05-09T16:14:01.281Z,100135.34
2024-05-09T16:16:04.104Z,100173.50
2024-05-09T16:18:07.051Z,100147.56
2024-05-09T16:20:15.149Z,100173.59
2024-05-09T16:22:20.975Z,100148.03
2024-05-09T16:24:23.332Z,100104.44
2024-05-09T16:26:26.917Z,100174.63
2024-05-09T16:28:29.595Z,100116.78
2024-05-09T16:30:35.435Z,100106.78
2024-05-09T16:32:41.665Z,100138.50
2024-05-09T16:34:44.557Z,100150.13
2024-05-09T16:36:47.400Z,100229.22
2024-05-09T16:38:49.825Z,100143.59
2024-05-09T16:40:52.479Z,100104.81
2024-05-09T16:42:55.006Z,100149.28
2024-05-09T16:44:57.435Z,100164.09
2024-05-09T16:46:59.902Z,100159.69
2024-05-09T16:49:03.217Z,100139.31
2024-05-09T16:51:06.302Z,100213.00
2024-05-09T16:53:09.238Z,100166.09
2024-05-09T16:55:11.961Z,100148.44
2024-05-09T16:57:14.549Z,100107.34
2024-05-09T16:59:17.307Z,100126.69
2024-05-09T17:01:19.880Z,100108.22
2024-05-09T17:03:23.923Z,100118.53
2024-05-09T17:05:28.903Z,100215.47
2024-05-09T17:07:32.031Z,100139.97
2024-05-09T17:09:34.708Z,100120.88
2024-05-09T17:11:37.332Z,100107.13
2024-05-09T17:13:41.219Z,100153.28
2024-05-09T17:15:43.526Z,100088.09
2024-05-09T17:17:46.047Z,100143.13
2024-05-09T17:19:48.802Z,100153.59
2024-05-09T17:21:51.314Z,100097.25
2024-05-09T17:23:55.931Z,100115.06
2024-05-09T17:26:00.974Z,100115.88
2024-05-09T17:28:07.490Z,100136.19
2024-05-09T17:32:15.492Z,100135.19
2024-05-09T17:34:17.924Z,100099.44
2024-05-09T17:36:20.856Z,100219.69
2024-05-09T17:38:23.940Z,100114.34
2024-05-09T17:40:32.624Z,100113.81
2024-05-09T17:42:38.408Z,100172.94
2024-05-09T17:44:41.062Z,100154.06
2024-05-09T17:46:43.573Z,100107.16
2024-05-09T17:48:46.064Z,100111.34
2024-05-09T17:50:51.310Z,100126.25
2024-05-09T17:52:53.907Z,100149.28
2024-05-09T17:54:56.411Z,100148.56
2024-05-09T17:56:58.992Z,100202.66
2024-05-09T17:59:01.650Z,100107.81
2024-05-09T18:01:04.494Z,100096.44
2024-05-09T18:03:07.380Z,100204.72
2024-05-09T18:05:11.080Z,100160.41
2024-05-09T18:07:13.745Z,100124.25
2024-05-09T18:09:16.105Z,100128.13
2024-05-09T18:11:18.522Z,100139.25
2024-05-09T18:13:21.085Z,100153.09
2024-05-09T18:15:23.779Z,100100.41
2024-05-09T18:17:26.599Z,100169.75
2024-05-09T18:19:29.063Z,100211.47
2024-05-09T18:21:31.850Z,100133.91
2024-05-09T18:23:35.363Z,100143.63
2024-05-09T18:25:38.030Z,100139.59
2024-05-09T18:27:40.546Z,100131.72
2024-05-09T18:29:43.141Z,100191.94
2024-05-09T18:31:45.693Z,100133.97
2024-05-09T18:33:48.234Z,100131.84
2024-05-09T18:35:51.257Z,100140.63
2024-05-09T18:37:54.015Z,100158.34
2024-05-09T18:39:56.702Z,100183.13
2024-05-09T18:42:00.978Z,100163.47
2024-05-09T18:44:04.267Z,100262.09
2024-05-09T18:46:07.004Z,100145.16
2024-05-09T18:48:10.793Z,100146.41
2024-05-09T18:50:20.458Z,100197.50
2024-05-09T18:52:30.328Z,100179.69
2024-05-09T18:54:32.911Z,100152.94
2024-05-09T18:56:37.748Z,100191.47
2024-05-09T18:58:40.207Z,100189.84
2024-05-09T19:00:45.374Z,100216.94
2024-05-09T19:02:50.020Z,100207.44
2024-05-09T19:04:53.265Z,100177.53
2024-05-09T19:06:56.100Z,100155.19
2024-05-09T19:08:58.946Z,100173.63
2024-05-09T19:11:02.314Z,100141.25
2024-05-09T19:13:09.252Z,100174.25
2024-05-09T19:15:16.098Z,100136.91
2024-05-09T19:17:19.004Z,100163.19
2024-05-09T19:19:22.396Z,100153.28
2024-05-09T19:21:24.913Z,100174.03
2024-05-09T19:23:27.554Z,100276.72
2024-05-09T19:25:30.219Z,100307.59
2024-05-09T19:27:33.362Z,100271.06
2024-05-09T19:29:36.463Z,100159.00
2024-05-09T19:31:38.981Z,100149.63
2024-05-09T19:33:41.471Z,100251.09
2024-05-09T19:35:44.238Z,100287.00
2024-05-09T19:37:49.236Z,100217.50
2024-05-09T19:39:52.100Z,100278.72
2024-05-09T19:41:54.621Z,100294.31
2024-05-09T19:43:57.171Z,100168.19
2024-05-09T19:45:59.610Z,100181.03
2024-05-09T19:48:02.673Z,100218.31
2024-05-09T19:50:10.753Z,100169.88
2024-05-09T19:52:16.349Z,100236.53
2024-05-09T19:54:19.363Z,100235.81
2024-05-09T19:56:22.543Z,100192.97
2024-05-09T19:58:26.075Z,100223.59
2024-05-09T20:00:34.744Z,100241.50
2024-05-09T20:02:38.885Z,100209.72
2024-05-09T20:04:44.193Z,100215.50
2024-05-09T20:06:47.203Z,100268.50
2024-05-09T20:08:49.805Z,100186.84
2024-05-09T20:10:52.367Z,100193.81
2024-05-09T20:12:54.928Z,100224.75
2024-05-09T20:14:57.436Z,100176.50
2024-05-09T20:16:59.870Z,100219.09
2024-05-09T20:19:02.638Z,100260.56
2024-05-09T20:21:06.751Z,100272.63
2024-05-09T20:23:10.596Z,100240.28
2024-05-09T20:25:13.315Z,100254.19
2024-05-09T20:27:15.804Z,100152.50
2024-05-09T20:29:18.439Z,100182.38
2024-05-09T20:31:24.079Z,100288.09
2024-05-09T20:33:28.813Z,100163.06
2024-05-09T20:35:35.027Z,100194.00
2024-05-09T20:37:37.883Z,100183.84
2024-05-09T20:39:40.280Z,100268.41
2024-05-09T20:41:44.088Z,100154.81
2024-05-09T20:43:46.490Z,100192.88
2024-05-09T20:45:49.021Z,100253.75
2024-05-09T20:47:51.429Z,100220.28
2024-05-09T20:49:54.003Z,100166.97
2024-05-09T20:51:56.574Z,100267.44
2024-05-09T20:53:59.734Z,100224.16
2024-05-09T20:56:02.253Z,100155.72
2024-05-09T20:58:05.112Z,100177.34
2024-05-09T21:00:14.946Z,100236.41
2024-05-09T21:02:21.191Z,100238.66
2024-05-09T21:04:24.422Z,100210.94
2024-05-09T21:06:27.022Z,100236.84
2024-05-09T21:08:29.389Z,100205.50
2024-05-09T21:10:33.564Z,100177.75
2024-05-09T21:12:37.034Z,100203.66
2024-05-09T21:14:39.421Z,100233.59
2024-05-09T21:16:41.825Z,100175.06
2024-05-09T21:18:44.609Z,100143.28
2024-05-09T21:20:47.123Z,100214.00
2024-05-09T21:22:49.715Z,100195.63
2024-05-09T21:24:52.528Z,100233.78
2024-05-09T21:26:55.368Z,100184.81
2024-05-09T21:28:58.313Z,100187.47
2024-05-09T21:31:00.810Z,100314.78
2024-05-09T21:33:03.423Z,100162.91
2024-05-09T21:35:06.603Z,100204.09
2024-05-09T21:37:09.233Z,100285.75
2024-05-09T21:39:11.966Z,100198.91
2024-05-09T21:41:14.750Z,100271.81
2024-05-09T21:43:17.228Z,100174.00
2024-05-09T21:45:20.144Z,100250.94
2024-05-09T21:47:22.999Z,100288.09
2024-05-09T21:49:25.870Z,100252.47
2024-05-09T21:51:29.731Z,100253.81
2024-05-09T21:53:33.305Z,100141.91
2024-05-09T21:55:36.717Z,100208.31
2024-05-09T21:57:39.161Z,100196.66
2024-05-09T21:59:42.594Z,100167.94
2024-05-09T22:01:45.042Z,100171.72
2024-05-09T22:03:47.744Z,100188.94
2024-05-09T22:05:50.607Z,100236.81
2024-05-09T22:07:53.516Z,100151.97
2024-05-09T22:09:56.364Z,100250.72
2024-05-09T22:11:59.296Z,100150.94
2024-05-09T22:14:01.921Z,100296.19
2024-05-09T22:16:04.789Z,100171.16
2024-05-09T22:18:08.836Z,100185.66
2024-05-09T22:20:18.421Z,100300.28
2024-05-09T22:22:28.198Z,100173.00
2024-05-09T22:24:30.751Z,100191.38
2024-05-09T22:26:33.254Z,100263.59
2024-05-09T22:28:35.983Z,100124.75
2024-05-09T22:30:40.283Z,100109.00
2024-05-09T22:32:43.278Z,100186.84
2024-05-09T22:34:45.764Z,100217.47
2024-05-09T22:36:48.487Z,100201.03
2024-05-09T22:38:51.092Z,100188.53
2024-05-09T22:40:53.563Z,100160.44
2024-05-09T22:42:56.337Z,100229.69
2024-05-09T22:44:58.903Z,100267.53
2024-05-09T22:47:01.319Z,100148.66
2024-05-09T22:49:04.410Z,100179.13
2024-05-09T22:51:07.248Z,100227.19
2024-05-09T22:53:10.811Z,100300.91
2024-05-09T22:55:14.110Z,100242.00
2024-05-09T22:57:16.894Z,100177.41
2024-05-09T22:59:19.603Z,100208.00
2024-05-09T23:01:26.312Z,100227.47
2024-05-09T23:03:29.495Z,100178.88
2024-05-09T23:05:33.048Z,100302.19
2024-05-09T23:07:35.848Z,100169.78
2024-05-09T23:09:38.513Z,100228.41
2024-05-09T23:11:42.379Z,100135.97
2024-05-09T23:13:44.902Z,100213.16
2024-05-09T23:15:47.425Z,100215.34
2024-05-09T23:17:50.344Z,100183.47
2024-05-09T23:19:52.996Z,100151.97
2024-05-09T23:21:55.719Z,100183.19
2024-05-09T23:23:58.402Z,100239.44
2024-05-09T23:26:01.251Z,100157.00
2024-05-09T23:28:04.713Z,100175.91
2024-05-09T23:30:12.164Z,100160.06
2024-05-09T23:32:15.301Z,100243.66
2024-05-09T23:34:18.070Z,100143.13
2024-05-09T23:36:21.326Z,100206.31